createdAt,value
2023-05-08T00:00:02.104Z,17.28
2023-05-08T00:15:01.831Z,17.34
2023-05-08T00:30:01.566Z,17.42
2023-05-08T00:45:02.265Z,17.23
2023-05-08T01:00:01.979Z,17.38
2023-05-08T01:15:01.682Z,17.44
2023-05-08T01:30:01.429Z,17.52
2023-05-08T01:45:02.234Z,17.6
2023-05-08T02:00:01.977Z,17.41
2023-05-08T02:15:01.698Z,17.51
2023-05-08T02:30:01.436Z,17.57
2023-05-08T02:45:02.167Z,17.4
2023-05-08T03:00:01.877Z,17.12
2023-05-08T03:15:02.061Z,17.06
2023-05-08T03:30:01.843Z,17
2023-05-08T03:45:02.544Z,16.75
2023-05-08T04:00:02.222Z,16.75
2023-05-08T04:15:01.938Z,16.69
2023-05-08T04:30:01.917Z,16.64
2023-05-08T04:45:01.633Z,16.74
2023-05-08T05:00:02.469Z,17.03
2023-05-08T05:15:02.151Z,17.5
2023-05-08T05:30:01.858Z,18.38
2023-05-08T05:45:01.586Z,21.79
2023-05-08T06:00:02.332Z,25.33
2023-05-08T06:15:02.137Z,28.16
2023-05-08T06:30:01.906Z,29.86
2023-05-08T06:45:01.668Z,30.76
2023-05-08T07:00:02.474Z,34.43
2023-05-08T07:15:13.802Z,35.03
2023-05-08T07:30:01.982Z,36.28
2023-05-08T07:45:01.733Z,37.29
2023-05-08T08:00:01.425Z,33.07
2023-05-08T08:15:02.150Z,38.93
2023-05-08T08:30:15.811Z,41.02
2023-05-08T08:45:02.063Z,45.01
2023-05-08T09:00:01.756Z,43.27
2023-05-08T09:15:01.497Z,43.24
2023-05-08T09:30:02.230Z,43.67
2023-05-08T09:45:01.978Z,45.62
2023-05-08T10:00:01.685Z,48.42
2023-05-08T10:15:01.481Z,47.23
2023-05-08T10:30:02.207Z,49.72
2023-05-08T10:45:01.941Z,50.56
2023-05-08T11:00:01.680Z,46.78
2023-05-08T11:15:01.710Z,40.86
2023-05-08T11:30:02.526Z,40.4
2023-05-08T11:45:02.223Z,40.57
2023-05-08T12:00:01.938Z,42.28
2023-05-08T12:15:01.643Z,39.43
2023-05-08T12:30:02.360Z,39.89
2023-05-08T12:45:02.143Z,40.63
2023-05-08T13:00:03.570Z,39.72
2023-05-08T13:15:02.129Z,42.03
2023-05-08T13:30:01.833Z,48.75
2023-05-08T13:45:02.532Z,42.63
2023-05-08T14:00:02.203Z,44.82
2023-05-08T14:15:01.905Z,40.43
2023-05-08T14:30:01.613Z,40.01
2023-05-08T14:45:02.364Z,43.06
2023-05-08T15:00:02.067Z,44.81
2023-05-08T15:15:03.794Z,40.9
2023-05-08T15:30:02.359Z,37.87
2023-05-08T15:45:02.065Z,36.26
2023-05-08T16:00:01.754Z,34.33
2023-05-08T16:15:02.467Z,31.3
2023-05-08T16:30:02.225Z,27.73
2023-05-08T16:45:01.976Z,27.98
2023-05-08T17:00:01.786Z,28.74
2023-05-08T17:15:01.481Z,27.25
2023-05-08T17:30:02.147Z,25.74
2023-05-08T17:45:01.944Z,25.76
2023-05-08T18:00:01.629Z,26.58
2023-05-08T18:15:02.323Z,26
2023-05-08T18:30:02.079Z,25.43
2023-05-08T18:45:01.793Z,25.64
2023-05-08T19:00:01.456Z,25.1
2023-05-08T19:15:02.191Z,24.46
2023-05-08T19:30:01.901Z,23.95
2023-05-08T19:45:01.586Z,24.08
2023-05-08T20:00:02.358Z,24.26
2023-05-08T20:15:02.130Z,24.43
2023-05-08T20:30:01.940Z,24.68
2023-05-08T20:45:01.704Z,24.67
2023-05-08T21:00:01.487Z,24.62
2023-05-08T21:15:02.311Z,24.35
2023-05-08T21:30:02.108Z,23.84
2023-05-08T21:45:01.805Z,23.52
2023-05-08T22:00:01.560Z,23.18
2023-05-08T22:15:01.311Z,23.34
2023-05-08T22:30:02.171Z,23.63
2023-05-08T22:45:01.991Z,23.64
2023-05-08T23:00:01.731Z,23.71
2023-05-08T23:15:01.514Z,23.86
2023-05-08T23:30:01.271Z,23.67
2023-05-08T23:45:02.072Z,23.77
